Time;durP1;ratioP1;P1;durP2;ratioP2;P2;SDS_P1;SDS_P2;PMS_P1;PMS_P2;Temp;Humidity;BMP_temperature;BMP_pressure;BME280_temperature;BME280_humidity;BME280_pressure;Samples;Min_cycle;Max_cycle;Signal;HPM_P1;HPM_P2
2023/02/21 02:15:17;;;;;;;54.78;31.50;;;;;;;-12.94;76.00;144151.22;5064870;28;20036;-65
2023/02/21 02:18:16;;;;;;;54.53;30.88;;;;;;;-12.94;75.96;144151.22;5056910;28;20028;-64
2023/02/21 02:21:06;;;;;;;52.72;30.77;;;;;;;-13.09;76.35;144116.03;5068254;28;20046;-65
2023/02/21 02:24:02;;;;;;;51.30;30.88;;;;;;;-13.12;76.05;144108.53;5064447;28;20048;-64
2023/02/21 02:26:41;;;;;;;52.25;31.25;;;;;;;-13.02;75.66;144133.63;5070160;28;20055;-66
2023/02/21 02:29:25;;;;;;;55.15;32.33;;;;;;;-13.10;76.31;144113.53;5079653;28;20311;-64
2023/02/21 02:32:03;;;;;;;51.30;29.88;;;;;;;-13.60;77.43;143990.53;5078144;28;20033;-65
2023/02/21 02:35:07;;;;;;;53.05;30.63;;;;;;;-13.39;76.58;144043.25;5071703;28;20020;-66
2023/02/21 02:37:55;;;;;;;54.20;31.08;;;;;;;-13.37;76.08;144048.25;5063603;28;20109;-63
2023/02/21 02:40:34;;;;;;;50.80;31.38;;;;;;;-13.32;76.09;144058.25;5064953;28;20476;-64
2023/02/21 02:43:15;;;;;;;51.38;31.40;;;;;;;-13.19;76.30;144090.94;5071746;28;20016;-64
2023/02/21 02:46:08;;;;;;;54.53;31.10;;;;;;;-13.37;76.38;144048.25;5086216;28;20103;-63
2023/02/21 02:48:37;;;;;;;50.58;30.52;;;;;;;-13.54;75.85;144005.59;5088252;28;20465;-64
2023/02/21 02:51:08;;;;;;;55.60;32.75;;;;;;;-13.34;76.82;144053.31;5085106;28;20029;-64
2023/02/21 02:53:34;;;;;;;52.38;31.17;;;;;;;-13.31;75.26;144062.03;5080717;28;20020;-64
2023/02/21 02:56:08;;;;;;;50.95;30.60;;;;;;;-13.29;75.85;144067.06;5088078;28;20064;-63
2023/02/21 02:58:41;;;;;;;48.80;30.45;;;;;;;-13.08;75.38;144117.28;5089109;28;20032;-62
2023/02/21 03:01:43;;;;;;;50.70;31.30;;;;;;;-13.13;75.76;144106.00;5089474;28;20028;-64
2023/02/21 03:04:39;;;;;;;51.72;31.92;;;;;;;-12.88;76.00;144167.56;5087654;28;20043;-64
2023/02/21 03:07:26;;;;;;;48.88;30.20;;;;;;;-13.10;75.10;144112.28;5086756;28;20032;-64
2023/02/21 03:10:13;;;;;;;51.50;31.10;;;;;;;-13.11;75.94;144109.75;5091664;28;20035;-64
2023/02/21 03:12:55;;;;;;;51.00;30.80;;;;;;;-13.25;75.37;144077.13;5089452;28;20055;-64
2023/02/21 03:15:29;;;;;;;47.13;29.17;;;;;;;-13.75;75.30;143954.09;5087525;28;20045;-64
2023/02/21 03:18:19;;;;;;;47.45;28.73;;;;;;;-13.78;76.27;143946.59;5084289;28;20024;-64
2023/02/21 03:20:49;;;;;;;52.75;31.10;;;;;;;-13.56;76.39;144000.59;5079886;28;20265;-62
2023/02/21 03:23:17;;;;;;;49.42;30.48;;;;;;;-13.53;75.71;144008.09;5092793;28;20024;-63
2023/02/21 03:25:46;;;;;;;51.03;31.98;;;;;;;-13.38;75.54;144045.78;5089848;28;20069;-65
2023/02/21 03:28:13;;;;;;;49.28;29.25;;;;;;;-13.51;76.12;144013.09;5090402;28;20020;-64
2023/02/21 03:30:41;;;;;;;53.17;32.38;;;;;;;-13.55;75.30;144004.34;5085704;28;20236;-64
2023/02/21 03:33:06;;;;;;;49.45;29.50;;;;;;;-13.24;75.67;144078.34;5085212;28;20048;-65
2023/02/21 03:35:32;;;;;;;50.65;31.35;;;;;;;-13.49;75.72;144016.88;5092058;28;20067;-67
2023/02/21 03:37:58;;;;;;;49.55;30.55;;;;;;;-13.33;74.91;144057.03;5091403;28;20020;-64
2023/02/21 03:40:30;;;;;;;50.40;31.27;;;;;;;-13.16;74.54;144098.47;5089120;28;20024;-64
2023/02/21 03:42:57;;;;;;;52.92;31.20;;;;;;;-13.33;74.79;144057.03;5084595;28;20376;-64
2023/02/21 03:45:23;;;;;;;53.50;31.10;;;;;;;-13.33;74.29;144057.03;5088126;28;20043;-64
2023/02/21 03:47:49;;;;;;;48.10;29.23;;;;;;;-13.62;75.12;143986.78;5088285;28;20059;-65
2023/02/21 03:50:15;;;;;;;49.72;30.13;;;;;;;-13.89;75.48;143921.50;5092590;28;20032;-63
2023/02/21 03:52:40;;;;;;;51.35;32.97;;;;;;;-13.69;75.02;143969.19;5081368;28;20016;-64
2023/02/21 03:55:07;;;;;;;53.30;32.90;;;;;;;-13.47;75.31;144023.16;5091571;28;20229;-64
2023/02/21 03:57:33;;;;;;;51.55;32.35;;;;;;;-13.54;74.51;144005.59;5086525;28;20469;-64
2023/02/21 03:59:59;;;;;;;53.17;31.98;;;;;;;-13.72;74.95;143962.91;5081282;28;20031;-63
2023/02/21 04:02:26;;;;;;;50.35;30.65;;;;;;;-13.97;75.41;143901.41;5084803;28;20080;-65
2023/02/21 04:04:52;;;;;;;49.08;32.78;;;;;;;-13.82;74.73;143936.53;5088640;28;20201;-63
2023/02/21 04:07:19;;;;;;;53.42;32.72;;;;;;;-14.04;74.51;143883.84;5090864;28;20028;-62
2023/02/21 04:09:46;;;;;;;50.53;32.03;;;;;;;-14.09;75.67;143872.56;5090147;28;20033;-65
2023/02/21 04:12:12;;;;;;;50.33;33.42;;;;;;;-14.26;76.26;143829.91;5084321;28;20036;-63
2023/02/21 04:14:37;;;;;;;55.35;33.30;;;;;;;-14.19;75.96;143847.47;5094514;28;20016;-63
2023/02/21 04:17:03;;;;;;;52.55;33.03;;;;;;;-13.95;74.69;143905.16;5080115;28;20356;-64
2023/02/21 04:19:29;;;;;;;49.25;33.20;;;;;;;-13.73;74.36;143959.16;5091349;28;20080;-64
2023/02/21 04:21:54;;;;;;;51.25;32.30;;;;;;;-13.67;73.84;143972.97;5088769;28;20021;-64
2023/02/21 04:24:20;;;;;;;50.88;32.05;;;;;;;-13.53;73.36;144008.09;5091717;28;20048;-63
2023/02/21 04:26:45;;;;;;;48.78;31.92;;;;;;;-13.94;73.06;143908.94;5079900;28;20104;-63
2023/02/21 04:29:11;;;;;;;55.70;33.83;;;;;;;-14.17;74.49;143852.47;5093927;28;20049;-64
2023/02/21 04:31:37;;;;;;;53.05;34.58;;;;;;;-13.96;73.49;143903.94;5083528;28;20251;-64
2023/02/21 04:34:03;;;;;;;52.38;35.95;;;;;;;-13.80;74.13;143941.59;5080012;28;20024;-63
2023/02/21 04:36:29;;;;;;;57.80;35.65;;;;;;;-13.93;73.19;143910.22;5084571;28;20016;-64
2023/02/21 04:38:55;;;;;;;54.08;35.53;;;;;;;-13.89;73.58;143921.50;5092102;28;20023;-64
2023/02/21 04:41:21;;;;;;;52.53;35.15;;;;;;;-13.81;72.43;143940.31;5088184;28;20237;-64
2023/02/21 04:43:46;;;;;;;52.80;35.75;;;;;;;-13.84;73.51;143932.78;5090240;28;20335;-63
2023/02/21 04:46:16;;;;;;;51.50;35.00;;;;;;;-13.97;72.77;143901.41;5089721;28;20044;-63
2023/02/21 04:48:51;;;;;;;54.00;33.85;;;;;;;-14.12;73.17;143863.75;5093047;28;20432;-65
2023/02/21 04:51:20;;;;;;;54.22;35.58;;;;;;;-13.98;72.51;143897.66;5093963;28;20050;-64
2023/02/21 04:53:47;;;;;;;55.05;35.78;;;;;;;-14.13;72.32;143861.28;5092591;28;20024;-64
2023/02/21 04:56:13;;;;;;;54.90;34.65;;;;;;;-14.11;74.73;143866.28;5093171;28;20043;-64
2023/02/21 04:58:41;;;;;;;59.63;39.47;;;;;;;-14.27;72.64;143827.41;5084336;28;20233;-64
2023/02/21 05:01:10;;;;;;;56.95;37.88;;;;;;;-14.31;73.66;143817.34;5087783;28;20129;-64
2023/02/21 05:03:36;;;;;;;59.55;37.85;;;;;;;-14.25;73.39;143832.41;5094696;28;20032;-66
2023/02/21 05:06:01;;;;;;;53.25;35.05;;;;;;;-14.11;74.87;143866.28;5095188;28;20028;-65
2023/02/21 05:08:27;;;;;;;53.85;36.78;;;;;;;-14.09;73.65;143872.56;5090016;28;20087;-64
2023/02/21 05:10:53;;;;;;;55.20;37.65;;;;;;;-13.90;74.33;143917.75;5083297;28;20092;-63
2023/02/21 05:13:21;;;;;;;55.63;35.55;;;;;;;-14.14;73.94;143858.75;5091590;28;20283;-63
2023/02/21 05:15:47;;;;;;;53.35;35.85;;;;;;;-14.18;73.86;143848.72;5094564;28;20031;-65
2023/02/21 05:18:13;;;;;;;55.10;36.85;;;;;;;-14.24;73.52;143836.16;5083019;28;20032;-65
2023/02/21 05:20:38;;;;;;;57.65;37.50;;;;;;;-14.17;74.10;143852.47;5093393;28;20430;-65
2023/02/21 05:23:04;;;;;;;56.72;37.83;;;;;;;-14.04;74.19;143882.59;5087737;28;20029;-65
2023/02/21 05:25:29;;;;;;;53.88;36.60;;;;;;;-13.94;74.31;143907.69;5093875;28;20091;-63
2023/02/21 05:27:55;;;;;;;57.92;37.47;;;;;;;-13.98;73.38;143897.66;5091835;28;20020;-65
2023/02/21 05:30:22;;;;;;;53.15;34.67;;;;;;;-13.70;72.90;143965.44;5095784;28;20035;-64
2023/02/21 05:32:48;;;;;;;53.95;35.13;;;;;;;-13.59;72.11;143994.31;5088198;28;20029;-64
2023/02/21 05:35:16;;;;;;;51.67;33.88;;;;;;;-13.71;72.22;143964.16;5090251;28;20042;-64
2023/02/21 05:37:42;;;;;;;53.50;33.03;;;;;;;-13.38;71.35;144045.78;5097783;28;20020;-62
2023/02/21 05:40:10;;;;;;;51.47;33.05;;;;;;;-13.48;70.93;144020.69;5091914;28;20028;-62
2023/02/21 05:42:36;;;;;;;54.55;32.95;;;;;;;-13.39;71.17;144043.25;5077597;28;20025;-63
2023/02/21 05:45:05;;;;;;;51.30;32.72;;;;;;;-13.40;71.29;144040.72;5092895;28;20043;-64
2023/02/21 05:47:33;;;;;;;51.17;33.88;;;;;;;-13.45;70.72;144028.22;5089426;28;20055;-64
2023/02/21 05:49:58;;;;;;;55.75;33.63;;;;;;;-13.68;71.52;143971.69;5086902;28;20357;-63
2023/02/21 05:52:24;;;;;;;49.67;32.05;;;;;;;-13.48;71.13;144020.69;5099814;28;20047;-63
2023/02/21 05:54:49;;;;;;;49.28;34.00;;;;;;;-13.25;71.56;144075.84;5096939;28;20020;-66
2023/02/21 05:57:15;;;;;;;51.13;32.55;;;;;;;-13.26;70.88;144074.59;5092767;28;20088;-64
2023/02/21 05:59:41;;;;;;;50.38;32.65;;;;;;;-13.24;70.16;144078.34;5087686;28;20324;-64
2023/02/21 06:02:06;;;;;;;51.58;32.80;;;;;;;-13.21;70.35;144085.88;5087939;28;20316;-62
2023/02/21 06:04:32;;;;;;;54.55;33.10;;;;;;;-13.31;70.47;144060.78;5093828;28;20027;-62
2023/02/21 06:06:57;;;;;;;49.80;32.15;;;;;;;-13.22;70.25;144083.41;5092880;28;20020;-64
2023/02/21 06:09:23;;;;;;;47.30;30.83;;;;;;;-13.25;70.18;144077.13;5090737;28;20034;-63
2023/02/21 06:11:48;;;;;;;48.08;31.58;;;;;;;-13.31;70.71;144060.78;5083792;28;20185;-65
2023/02/21 06:14:18;;;;;;;42.88;29.10;;;;;;;-13.35;69.73;144052.06;5095928;28;20070;-65
2023/02/21 06:16:45;;;;;;;48.57;30.87;;;;;;;-13.45;69.51;144026.91;5097755;28;20329;-65
2023/02/21 06:19:15;;;;;;;46.58;30.00;;;;;;;-13.26;70.07;144073.34;5076589;28;20019;-64
2023/02/21 06:21:41;;;;;;;47.97;31.00;;;;;;;-13.27;69.96;144070.84;5075712;28;20301;-64
2023/02/21 06:24:08;;;;;;;46.75;28.40;;;;;;;-13.55;69.15;144003.06;5098234;28;20373;-63
2023/02/21 06:26:34;;;;;;;47.78;28.65;;;;;;;-13.34;69.94;144053.31;5080726;28;20024;-63
2023/02/21 06:29:00;;;;;;;50.28;30.35;;;;;;;-13.37;69.96;144047.03;5098794;28;20070;-63
2023/02/21 06:31:26;;;;;;;44.08;28.58;;;;;;;-13.22;69.25;144084.66;5098489;28;20078;-64
2023/02/21 06:33:51;;;;;;;45.13;27.63;;;;;;;-13.04;69.65;144128.63;5099962;28;20324;-63
2023/02/21 06:36:21;;;;;;;50.22;29.00;;;;;;;-13.64;69.46;143980.50;5098586;28;20100;-63
2023/02/21 06:38:50;;;;;;;50.40;27.92;;;;;;;-13.71;70.17;143964.16;5098874;28;20066;-64
2023/02/21 06:41:18;;;;;;;51.35;28.52;;;;;;;-13.27;69.26;144072.06;5080312;28;20051;-63
2023/02/21 06:43:44;;;;;;;46.10;28.08;;;;;;;-13.14;68.98;144102.22;5079313;28;20311;-65
2023/02/21 06:46:14;;;;;;;46.25;26.17;;;;;;;-13.78;68.88;143946.59;5098729;28;20070;-65
2023/02/21 06:48:39;;;;;;;43.40;24.90;;;;;;;-13.98;70.20;143898.88;5073554;28;20059;-65
2023/02/21 06:51:09;;;;;;;60.38;27.00;;;;;;;-13.21;70.18;144085.88;5098879;28;20206;-65
2023/02/21 06:53:34;;;;;;;51.42;27.15;;;;;;;-13.32;70.41;144058.25;5096561;28;20038;-66
2023/02/21 06:56:00;;;;;;;44.70;25.80;;;;;;;-13.26;70.18;144073.34;5098588;28;20039;-65
2023/02/21 06:58:25;;;;;;;42.60;26.25;;;;;;;-13.25;69.96;144075.84;5098716;28;20035;-64
2023/02/21 07:00:51;;;;;;;45.22;26.70;;;;;;;-13.03;69.77;144131.09;5099992;28;20020;-65
2023/02/21 07:03:17;;;;;;;43.85;25.73;;;;;;;-13.02;68.69;144132.38;5063288;28;20055;-63
2023/02/21 07:05:42;;;;;;;43.40;27.15;;;;;;;-12.53;68.76;144251.72;5097885;28;20032;-63
2023/02/21 07:08:08;;;;;;;48.60;26.30;;;;;;;-12.62;68.82;144229.13;5097870;28;20207;-64
2023/02/21 07:10:34;;;;;;;45.88;26.17;;;;;;;-12.83;67.83;144178.84;5078290;28;20062;-66
2023/02/21 07:12:59;;;;;;;45.30;23.65;;;;;;;-12.82;68.76;144181.38;5084461;28;20016;-63
2023/02/21 07:15:25;;;;;;;37.65;23.52;;;;;;;-12.01;68.73;144378.72;5092551;28;20030;-65
2023/02/21 07:17:51;;;;;;;47.30;24.58;;;;;;;-11.24;67.15;144566.03;5088365;28;20626;-64
2023/02/21 07:20:16;;;;;;;39.22;21.65;;;;;;;-11.41;65.86;144525.78;5074742;28;20074;-65
2023/02/21 07:22:42;;;;;;;39.42;21.77;;;;;;;-11.64;66.43;144469.19;5095511;28;20032;-65
2023/02/21 07:25:12;;;;;;;40.55;22.67;;;;;;;-11.60;67.16;144477.97;5096071;28;20028;-65
2023/02/21 07:27:38;;;;;;;35.93;21.60;;;;;;;-11.06;66.60;144610.09;5097483;28;20327;-65
2023/02/21 07:30:04;;;;;;;40.03;22.55;;;;;;;-10.44;64.44;144763.66;5086041;28;20036;-63
2023/02/21 07:32:30;;;;;;;36.80;21.92;;;;;;;-10.27;64.54;144805.16;5088533;28;20027;-64
2023/02/21 07:34:55;;;;;;;41.03;22.98;;;;;;;-10.59;63.66;144727.16;5093514;28;20224;-64
2023/02/21 07:37:21;;;;;;;37.00;20.85;;;;;;;-10.08;63.36;144851.75;5096382;28;20047;-66
2023/02/21 07:39:46;;;;;;;35.90;20.55;;;;;;;-10.58;62.43;144728.41;5094059;28;20052;-65
2023/02/21 07:42:12;;;;;;;34.88;20.08;;;;;;;-10.80;62.57;144675.53;5093502;28;20019;-65
2023/02/21 07:44:38;;;;;;;38.38;21.17;;;;;;;-10.43;63.46;144764.91;5097932;28;20019;-65
2023/02/21 07:47:03;;;;;;;42.80;22.75;;;;;;;-10.02;61.38;144864.38;5096989;28;20056;-63
2023/02/21 07:49:29;;;;;;;40.22;20.55;;;;;;;-9.91;60.07;144892.09;5100380;28;20032;-64
2023/02/21 07:51:54;;;;;;;40.58;20.60;;;;;;;-9.53;60.99;144985.34;5089033;28;20040;-63
2023/02/21 07:54:22;;;;;;;38.88;20.00;;;;;;;-9.10;59.50;145089.97;5082191;28;20043;-64
2023/02/21 07:56:48;;;;;;;35.42;19.17;;;;;;;-8.66;58.42;145198.44;5098438;28;20118;-64
2023/02/21 07:59:14;;;;;;;35.30;19.92;;;;;;;-9.93;60.32;144888.31;5080855;28;20044;-64
2023/02/21 08:01:41;;;;;;;35.03;19.65;;;;;;;-9.54;59.46;144982.81;5084384;28;20043;-64
2023/02/21 08:04:07;;;;;;;32.47;19.83;;;;;;;-9.16;58.77;145074.81;5099970;28;20208;-64
2023/02/21 08:06:33;;;;;;;32.53;20.27;;;;;;;-9.07;58.00;145097.53;5097562;28;20024;-65
2023/02/21 08:08:59;;;;;;;33.72;19.63;;;;;;;-9.15;60.05;145078.59;5091630;28;20433;-64
2023/02/21 08:11:25;;;;;;;33.25;19.52;;;;;;;-9.84;58.23;144908.47;5090657;28;20028;-64
2023/02/21 08:13:50;;;;;;;33.72;19.38;;;;;;;-9.60;62.12;144967.69;5098624;28;20031;-64
2023/02/21 08:16:16;;;;;;;32.95;19.42;;;;;;;-8.76;61.57;145173.22;5079304;28;20032;-64
2023/02/21 08:18:41;;;;;;;31.98;18.52;;;;;;;-8.09;59.80;145337.13;5086770;28;20330;-65
2023/02/21 08:21:09;;;;;;;40.78;19.27;;;;;;;-8.12;57.75;145330.84;5101202;28;20047;-63
2023/02/21 08:23:35;;;;;;;32.95;19.02;;;;;;;-8.18;58.35;145316.97;5095718;28;20081;-64
2023/02/21 08:26:02;;;;;;;29.27;18.40;;;;;;;-8.11;56.56;145332.09;5097891;28;20025;-64
2023/02/21 08:28:28;;;;;;;27.60;17.30;;;;;;;-8.30;56.96;145285.44;5106832;28;20062;-65
2023/02/21 08:30:54;;;;;;;31.25;17.30;;;;;;;-7.81;56.94;145406.56;5096024;28;20388;-68
2023/02/21 08:33:20;;;;;;;28.42;16.95;;;;;;;-7.06;58.12;145589.69;5074663;28;20039;-66
2023/02/21 08:35:45;;;;;;;26.40;16.08;;;;;;;-8.56;56.54;145223.63;5087986;28;20024;-65
2023/02/21 08:38:11;;;;;;;24.67;15.52;;;;;;;-9.18;59.29;145071.03;5089291;28;20043;-65
2023/02/21 08:40:37;;;;;;;30.02;16.95;;;;;;;-9.33;60.22;145033.22;5099876;28;20024;-64
2023/02/21 08:43:04;;;;;;;28.20;16.70;;;;;;;-9.02;59.58;145110.09;5102419;28;20028;-63
2023/02/21 08:45:29;;;;;;;30.48;16.58;;;;;;;-9.47;61.49;144999.22;5087205;28;20047;-64
2023/02/21 08:47:56;;;;;;;26.90;16.67;;;;;;;-8.82;60.70;145158.03;5083791;28;20043;-64
2023/02/21 08:50:23;;;;;;;29.35;16.58;;;;;;;-9.42;61.49;145011.78;5073675;28;20025;-65
2023/02/21 08:52:50;;;;;;;31.90;17.75;;;;;;;-9.05;62.71;145102.56;5096142;28;20024;-64
2023/02/21 08:55:16;;;;;;;31.73;17.98;;;;;;;-8.57;60.34;145221.09;5084755;28;20086;-65
2023/02/21 08:57:42;;;;;;;28.70;16.92;;;;;;;-8.92;60.78;145134.06;5090763;28;20099;-66
2023/02/21 09:00:10;;;;;;;26.83;16.65;;;;;;;-8.54;59.75;145228.66;5095665;28;20062;-64
2023/02/21 09:02:39;;;;;;;27.77;15.32;;;;;;;-9.28;58.82;145047.06;5092617;28;20027;-68
2023/02/21 09:05:19;;;;;;;29.85;16.88;;;;;;;-9.45;62.42;145005.47;5104628;28;20103;-65
2023/02/21 09:07:49;;;;;;;25.98;16.02;;;;;;;-9.60;61.79;144968.94;5097578;28;20223;-63
2023/02/21 09:10:14;;;;;;;24.40;15.43;;;;;;;-9.26;60.70;145050.84;5094046;28;20021;-63
2023/02/21 09:12:40;;;;;;;29.95;17.27;;;;;;;-8.74;60.89;145179.47;5096471;28;20357;-64
2023/02/21 09:15:07;;;;;;;26.42;16.20;;;;;;;-8.93;60.00;145132.84;5094472;28;20248;-64
2023/02/21 09:17:34;;;;;;;28.65;16.33;;;;;;;-9.43;61.87;145010.53;5092211;28;20035;-64
2023/02/21 09:20:05;;;;;;;25.42;14.85;;;;;;;-9.28;60.01;145047.06;5089179;28;20023;-63
2023/02/21 09:22:31;;;;;;;27.60;17.10;;;;;;;-8.75;60.71;145175.69;5093209;28;20024;-64
2023/02/21 09:24:57;;;;;;;25.35;15.88;;;;;;;-8.63;60.75;145205.97;5091526;28;20059;-65
2023/02/21 09:27:35;;;;;;;26.08;15.48;;;;;;;-8.89;59.98;145141.63;5093197;28;20047;-64
2023/02/21 09:30:08;;;;;;;27.85;15.88;;;;;;;-7.38;61.45;145512.66;5084530;28;20032;-65
2023/02/21 09:32:34;;;;;;;24.88;15.27;;;;;;;-8.23;58.13;145303.09;5077616;28;20289;-64
2023/02/21 09:34:59;;;;;;;27.02;17.17;;;;;;;-7.15;60.46;145569.47;5093507;28;20032;-63
2023/02/21 09:37:25;;;;;;;24.63;15.95;;;;;;;-6.78;55.92;145660.44;5093335;28;20091;-63
2023/02/21 09:39:51;;;;;;;27.27;16.70;;;;;;;-6.55;57.79;145714.78;5091283;28;20036;-63
2023/02/21 09:42:18;;;;;;;26.48;17.52;;;;;;;-6.30;57.72;145776.69;5094399;28;20048;-62
2023/02/21 09:44:45;;;;;;;24.83;16.10;;;;;;;-6.34;56.02;145766.59;5092478;28;20023;-65
2023/02/21 09:47:22;;;;;;;26.52;17.45;;;;;;;-6.25;56.29;145790.59;5093918;28;20125;-65
2023/02/21 09:49:53;;;;;;;24.23;15.70;;;;;;;-6.37;55.53;145759.00;5094212;28;20313;-64
2023/02/21 09:52:29;;;;;;;25.45;16.23;;;;;;;-6.65;56.21;145690.78;5100841;28;20020;-65
2023/02/21 09:54:58;;;;;;;24.60;16.48;;;;;;;-7.02;56.66;145601.06;5090552;28;20035;-63
2023/02/21 09:57:23;;;;;;;26.13;17.05;;;;;;;-7.09;54.94;145583.38;5086085;28;20026;-63
2023/02/21 09:59:49;;;;;;;24.70;15.52;;;;;;;-7.66;55.62;145444.44;5096525;28;20297;-65
2023/02/21 10:02:36;;;;;;;25.20;15.85;;;;;;;-8.19;57.18;145314.44;5089047;28;20520;-63
2023/02/21 10:05:04;;;;;;;29.17;16.45;;;;;;;-8.25;58.39;145299.31;5093988;28;20101;-66
2023/02/21 10:07:36;;;;;;;23.60;15.95;;;;;;;-8.56;58.79;145223.63;5092736;28;20028;-63
2023/02/21 10:10:20;;;;;;;25.80;14.85;;;;;;;-8.89;59.14;145141.63;5098565;28;20069;-63
2023/02/21 10:13:02;;;;;;;22.85;14.75;;;;;;;-8.32;60.45;145281.66;5097499;28;20342;-64
2023/02/21 10:15:48;;;;;;;26.17;15.63;;;;;;;-7.85;59.62;145396.44;5089447;28;20027;-65
2023/02/21 10:18:23;;;;;;;23.33;14.52;;;;;;;-8.28;58.24;145291.69;5082562;28;20043;-63
2023/02/21 10:20:53;;;;;;;25.17;15.35;;;;;;;-8.10;59.56;145335.88;5093082;28;20050;-65
2023/02/21 10:23:47;;;;;;;25.10;15.75;;;;;;;-8.30;58.69;145286.66;5082859;28;20540;-66
2023/02/21 10:26:33;;;;;;;26.80;16.08;;;;;;;-8.37;58.39;145270.25;5093382;28;20112;-63
2023/02/21 10:28:59;;;;;;;27.90;16.83;;;;;;;-7.86;59.86;145393.97;5096762;28;20035;-64
2023/02/21 10:31:30;;;;;;;25.13;15.65;;;;;;;-7.55;58.90;145470.97;5094330;28;20296;-63
2023/02/21 10:33:58;;;;;;;25.80;15.70;;;;;;;-7.84;58.39;145400.28;5098259;28;20026;-63
2023/02/21 10:36:25;;;;;;;29.40;17.08;;;;;;;-7.71;59.85;145430.53;5100600;28;20196;-65
2023/02/21 10:39:01;;;;;;;27.08;15.73;;;;;;;-7.57;59.34;145464.66;5090725;28;20060;-64
2023/02/21 10:41:30;;;;;;;27.23;16.73;;;;;;;-7.62;57.67;145453.28;5093628;28;20045;-64
2023/02/21 10:44:34;;;;;;;25.88;15.43;;;;;;;-7.53;58.30;145476.00;5096503;28;20031;-63
2023/02/21 10:47:23;;;;;;;26.17;15.95;;;;;;;-8.28;58.33;145291.69;5063181;28;20077;-64
2023/02/21 10:50:02;;;;;;;28.35;16.73;;;;;;;-8.17;59.55;145319.47;5096446;28;20060;-64
2023/02/21 10:52:36;;;;;;;29.38;17.35;;;;;;;-8.15;58.46;145323.28;5094803;28;20069;-66
2023/02/21 10:55:03;;;;;;;30.73;16.75;;;;;;;-8.07;59.43;145342.19;5099315;28;20305;-64
2023/02/21 10:57:32;;;;;;;27.23;17.42;;;;;;;-8.04;58.90;145349.75;5093474;28;20036;-64
2023/02/21 11:00:08;;;;;;;25.58;16.45;;;;;;;-7.78;59.45;145412.88;5086999;28;20084;-65
2023/02/21 11:02:40;;;;;;;27.08;15.60;;;;;;;-7.93;59.24;145376.28;5090033;28;20018;-64
2023/02/21 11:05:15;;;;;;;24.48;15.70;;;;;;;-8.04;56.68;145349.75;5094568;28;20361;-65
2023/02/21 11:08:09;;;;;;;23.13;14.80;;;;;;;-8.11;57.26;145333.34;5089415;28;20028;-65
2023/02/21 11:10:40;;;;;;;25.00;15.20;;;;;;;-8.11;58.65;145332.09;5088332;28;20292;-63
2023/02/21 11:13:16;;;;;;;;;;;;;;;-7.74;58.74;145422.97;5082375;28;20138;-63
2023/02/21 11:15:44;;;;;;;26.77;15.07;;;;;;;-7.96;57.09;145369.97;5084045;28;19907;-64
2023/02/21 11:18:26;;;;;;;26.10;16.73;;;;;;;-7.78;58.74;145412.88;5087761;28;20318;-65
2023/02/21 11:20:52;;;;;;;28.20;17.45;;;;;;;-7.76;60.14;145419.19;5094786;28;20096;-67
2023/02/21 11:23:29;;;;;;;27.20;16.58;;;;;;;-7.88;60.36;145390.19;5098598;28;20065;-65
2023/02/21 11:26:06;;;;;;;31.58;17.35;;;;;;;-7.87;58.47;145391.44;5079323;28;20076;-65
2023/02/21 11:28:42;;;;;;;27.08;17.13;;;;;;;-7.87;59.27;145392.66;5096191;28;20095;-63
2023/02/21 11:31:34;;;;;;;30.30;19.33;;;;;;;-7.77;58.73;145415.41;5078248;28;20039;-64
2023/02/21 11:34:09;;;;;;;27.95;16.67;;;;;;;-7.95;58.57;145372.50;5090814;28;20043;-63
2023/02/21 11:36:38;;;;;;;29.70;17.17;;;;;;;-8.16;57.25;145322.00;5092956;28;20088;-65
2023/02/21 11:39:06;;;;;;;27.17;16.52;;;;;;;-7.82;58.50;145405.31;5088231;28;20024;-63
2023/02/21 11:41:31;;;;;;;24.48;15.07;;;;;;;-7.86;56.71;145395.19;5071522;28;20023;-64
2023/02/21 11:43:57;;;;;;;28.70;16.77;;;;;;;-7.98;58.20;145364.91;5091144;28;20090;-64
2023/02/21 11:46:35;;;;;;;27.23;16.60;;;;;;;-7.96;56.88;145368.72;5091857;28;20072;-62
2023/02/21 11:49:13;;;;;;;30.08;16.50;;;;;;;-7.98;56.83;145366.19;5090571;28;20095;-63
2023/02/21 11:51:50;;;;;;;25.85;15.02;;;;;;;-7.85;56.35;145396.44;5085729;28;20318;-65
2023/02/21 11:54:18;;;;;;;23.55;15.18;;;;;;;-7.99;55.57;145363.66;5098547;28;20036;-64
2023/02/21 11:56:50;;;;;;;28.00;16.40;;;;;;;-7.96;56.31;145368.72;5086897;28;20040;-64
2023/02/21 11:59:34;;;;;;;24.48;15.45;;;;;;;-7.70;56.89;145434.31;5094426;28;20179;-63
2023/02/21 12:02:24;;;;;;;27.27;15.65;;;;;;;-8.01;56.24;145357.31;5101066;28;20034;-65
2023/02/21 12:05:08;;;;;;;24.67;15.88;;;;;;;-7.85;56.70;145397.75;5098112;28;20024;-62
2023/02/21 12:07:42;;;;;;;27.63;16.40;;;;;;;-7.86;56.54;145395.19;5082434;28;20035;-62
2023/02/21 12:10:22;;;;;;;26.67;16.23;;;;;;;-7.92;56.96;145378.78;5078724;28;20264;-66
2023/02/21 12:13:02;;;;;;;28.05;16.23;;;;;;;-7.86;59.82;145393.97;5091947;28;20032;-64
2023/02/21 12:15:33;;;;;;;27.98;17.00;;;;;;;-7.63;59.29;145450.75;5100044;28;20020;-64
2023/02/21 12:18:24;;;;;;;29.63;18.00;;;;;;;-7.60;59.60;145458.31;5098236;28;20024;-63
2023/02/21 12:21:02;;;;;;;25.43;17.17;;;;;;;-7.55;58.74;145470.97;5099680;28;20031;-63
2023/02/21 12:23:49;;;;;;;27.73;17.70;;;;;;;-7.40;60.89;145506.31;5093564;28;20433;-62
2023/02/21 12:26:42;;;;;;;29.83;16.25;;;;;;;-7.51;59.87;145479.78;5097787;28;20051;-62
2023/02/21 12:29:43;;;;;;;26.27;16.90;;;;;;;-7.65;59.31;145446.97;5092168;28;20062;-64
2023/02/21 12:32:38;;;;;;;27.80;16.52;;;;;;;-7.80;60.76;145410.34;5099033;28;20032;-62
2023/02/21 12:35:09;;;;;;;29.13;15.43;;;;;;;-7.91;60.40;145382.59;5085082;28;20091;-63
2023/02/21 12:37:45;;;;;;;;;;;;;;;-8.02;60.79;145354.84;5089827;28;20020;-62
2023/02/21 12:40:33;;;;;;;25.25;15.02;;;;;;;-8.07;61.42;145343.44;5096000;28;19934;-65
2023/02/21 12:43:01;;;;;;;25.92;15.00;;;;;;;-8.08;61.11;145339.66;5104010;28;20036;-63
2023/02/21 12:45:36;;;;;;;29.80;15.48;;;;;;;-8.16;61.52;145322.00;5107246;28;20038;-63
2023/02/21 12:48:23;;;;;;;25.10;15.38;;;;;;;-8.05;62.02;145347.22;5104091;28;20336;-64
2023/02/21 12:50:54;;;;;;;28.50;15.95;;;;;;;-8.02;62.29;145354.84;5101699;28;20030;-64
2023/02/21 12:53:37;;;;;;;24.83;14.63;;;;;;;-8.33;61.82;145279.09;5103108;28;20256;-63
2023/02/21 12:56:12;;;;;;;23.55;14.95;;;;;;;-8.24;60.09;145301.78;5090851;28;20024;-64
2023/02/21 12:58:50;;;;;;;22.67;14.05;;;;;;;-8.19;59.82;145314.44;5091308;28;20111;-64
2023/02/21 13:01:25;;;;;;;21.75;12.82;;;;;;;-8.53;58.76;145229.97;5077509;28;20107;-65
2023/02/21 13:04:21;;;;;;;24.30;13.35;;;;;;;-8.57;58.82;145221.09;5085787;28;20065;-63
2023/02/21 13:07:02;;;;;;;23.08;14.07;;;;;;;-8.54;59.63;145227.41;5104487;28;20143;-64
2023/02/21 13:09:39;;;;;;;23.42;13.35;;;;;;;-8.61;60.40;145209.75;5104994;28;20093;-64
2023/02/21 13:12:24;;;;;;;22.98;13.65;;;;;;;-8.48;60.15;145242.53;5099176;28;20036;-63
2023/02/21 13:15:15;;;;;;;22.92;14.20;;;;;;;-8.50;60.20;145238.75;5095186;28;20020;-62
2023/02/21 13:17:43;;;;;;;23.42;14.43;;;;;;;-8.43;59.66;145255.13;5081159;28;20043;-62
2023/02/21 13:20:16;;;;;;;24.00;14.40;;;;;;;-8.24;59.90;145300.56;5101401;28;20028;-65
2023/02/21 13:23:01;;;;;;;23.50;14.48;;;;;;;-8.16;60.92;145320.75;5086862;28;20303;-65
2023/02/21 13:26:09;;;;;;;24.70;15.25;;;;;;;-8.00;61.44;145359.88;5086188;28;20020;-63
2023/02/21 13:28:37;;;;;;;27.13;14.82;;;;;;;-8.06;60.49;145344.75;5086306;28;20024;-64
2023/02/21 13:31:17;;;;;;;24.42;14.18;;;;;;;-8.27;59.35;145293.00;5086034;28;20032;-61
2023/02/21 13:33:51;;;;;;;24.00;13.43;;;;;;;-8.64;58.78;145203.44;5081396;28;20088;-63
2023/02/21 13:36:40;;;;;;;22.88;13.10;;;;;;;-8.74;60.87;145178.22;5084323;28;20024;-64
2023/02/21 13:39:36;;;;;;;17.15;11.98;;;;;;;-8.72;60.30;145183.25;5088861;28;20036;-63
2023/02/21 13:42:14;;;;;;;20.50;12.75;;;;;;;-8.99;60.02;145117.72;5071488;28;20109;-63